sensor_id;sensor_type;location;lat;lon;timestamp;P1;durP1;ratioP1;P2;durP2;ratioP2
13660;SDS011;6903;49.480;11.102;2023-09-07T00:00:35;3.35;;;3.05;;
13660;SDS011;6903;49.480;11.102;2023-09-07T00:03:00;3.05;;;2.70;;
13660;SDS011;6903;49.480;11.102;2023-09-07T00:05:26;2.80;;;2.55;;
13660;SDS011;6903;49.480;11.102;2023-09-07T00:07:51;4.95;;;3.10;;
13660;SDS011;6903;49.480;11.102;2023-09-07T00:10:16;4.88;;;3.25;;
13660;SDS011;6903;49.480;11.102;2023-09-07T00:12:42;3.58;;;2.88;;
13660;SDS011;6903;49.480;11.102;2023-09-07T00:15:08;3.40;;;2.72;;
13660;SDS011;6903;49.480;11.102;2023-09-07T00:17:35;3.13;;;2.65;;
13660;SDS011;6903;49.480;11.102;2023-09-07T00:20:01;4.22;;;3.33;;
13660;SDS011;6903;49.480;11.102;2023-09-07T00:22:29;2.85;;;2.60;;
13660;SDS011;6903;49.480;11.102;2023-09-07T00:24:54;3.38;;;2.88;;
13660;SDS011;6903;49.480;11.102;2023-09-07T00:27:19;3.33;;;2.95;;
13660;SDS011;6903;49.480;11.102;2023-09-07T00:29:45;3.67;;;3.20;;
13660;SDS011;6903;49.480;11.102;2023-09-07T00:32:10;3.17;;;2.88;;
13660;SDS011;6903;49.480;11.102;2023-09-07T00:34:36;3.30;;;2.78;;
13660;SDS011;6903;49.480;11.102;2023-09-07T00:37:01;3.40;;;3.00;;
13660;SDS011;6903;49.480;11.102;2023-09-07T00:39:26;3.33;;;2.90;;
13660;SDS011;6903;49.480;11.102;2023-09-07T00:41:51;3.70;;;3.25;;
13660;SDS011;6903;49.480;11.102;2023-09-07T00:44:17;4.18;;;3.35;;
13660;SDS011;6903;49.480;11.102;2023-09-07T00:46:42;3.38;;;3.08;;
13660;SDS011;6903;49.480;11.102;2023-09-07T00:49:09;3.92;;;3.15;;
13660;SDS011;6903;49.480;11.102;2023-09-07T00:51:36;4.13;;;3.15;;
13660;SDS011;6903;49.480;11.102;2023-09-07T00:54:01;3.40;;;3.10;;
13660;SDS011;6903;49.480;11.102;2023-09-07T00:56:27;3.45;;;3.15;;
13660;SDS011;6903;49.480;11.102;2023-09-07T00:58:52;4.45;;;3.45;;
13660;SDS011;6903;49.480;11.102;2023-09-07T01:01:19;3.85;;;3.45;;
13660;SDS011;6903;49.480;11.102;2023-09-07T01:03:45;5.80;;;3.47;;
13660;SDS011;6903;49.480;11.102;2023-09-07T01:06:20;4.28;;;3.30;;
13660;SDS011;6903;49.480;11.102;2023-09-07T01:08:50;4.03;;;3.63;;
13660;SDS011;6903;49.480;11.102;2023-09-07T01:11:21;4.53;;;3.22;;
13660;SDS011;6903;49.480;11.102;2023-09-07T01:13:47;5.15;;;3.90;;
13660;SDS011;6903;49.480;11.102;2023-09-07T01:16:13;3.35;;;3.05;;
13660;SDS011;6903;49.480;11.102;2023-09-07T01:18:39;4.28;;;3.47;;
13660;SDS011;6903;49.480;11.102;2023-09-07T01:21:05;5.95;;;3.83;;
13660;SDS011;6903;49.480;11.102;2023-09-07T01:23:33;3.20;;;2.88;;
13660;SDS011;6903;49.480;11.102;2023-09-07T01:26:03;4.43;;;3.47;;
13660;SDS011;6903;49.480;11.102;2023-09-07T01:28:31;3.55;;;3.20;;
13660;SDS011;6903;49.480;11.102;2023-09-07T01:30:56;4.55;;;3.50;;
13660;SDS011;6903;49.480;11.102;2023-09-07T01:33:22;3.90;;;3.50;;
13660;SDS011;6903;49.480;11.102;2023-09-07T01:35:48;4.97;;;4.05;;
13660;SDS011;6903;49.480;11.102;2023-09-07T01:38:13;3.97;;;3.60;;
13660;SDS011;6903;49.480;11.102;2023-09-07T01:40:39;4.07;;;3.47;;
13660;SDS011;6903;49.480;11.102;2023-09-07T01:43:04;4.18;;;3.63;;
13660;SDS011;6903;49.480;11.102;2023-09-07T01:45:29;4.70;;;3.60;;
13660;SDS011;6903;49.480;11.102;2023-09-07T01:47:55;4.35;;;3.45;;
13660;SDS011;6903;49.480;11.102;2023-09-07T01:50:20;4.57;;;3.78;;
13660;SDS011;6903;49.480;11.102;2023-09-07T01:52:46;3.95;;;3.30;;
13660;SDS011;6903;49.480;11.102;2023-09-07T01:55:13;4.10;;;3.63;;
13660;SDS011;6903;49.480;11.102;2023-09-07T01:57:39;4.55;;;3.95;;
13660;SDS011;6903;49.480;11.102;2023-09-07T02:00:04;4.60;;;3.83;;
13660;SDS011;6903;49.480;11.102;2023-09-07T02:02:30;6.32;;;3.97;;
13660;SDS011;6903;49.480;11.102;2023-09-07T02:04:56;5.30;;;3.67;;
13660;SDS011;6903;49.480;11.102;2023-09-07T02:07:21;4.40;;;4.00;;
13660;SDS011;6903;49.480;11.102;2023-09-07T02:09:46;5.30;;;3.80;;
13660;SDS011;6903;49.480;11.102;2023-09-07T02:12:11;4.28;;;3.50;;
13660;SDS011;6903;49.480;11.102;2023-09-07T02:14:37;4.88;;;3.65;;
13660;SDS011;6903;49.480;11.102;2023-09-07T02:17:02;4.47;;;3.85;;
13660;SDS011;6903;49.480;11.102;2023-09-07T02:19:27;4.32;;;3.60;;
13660;SDS011;6903;49.480;11.102;2023-09-07T02:21:53;5.23;;;3.77;;
13660;SDS011;6903;49.480;11.102;2023-09-07T02:24:19;4.27;;;3.80;;
13660;SDS011;6903;49.480;11.102;2023-09-07T02:26:44;5.82;;;3.88;;
13660;SDS011;6903;49.480;11.102;2023-09-07T02:29:13;4.13;;;3.73;;
13660;SDS011;6903;49.480;11.102;2023-09-07T02:31:39;4.30;;;3.73;;
13660;SDS011;6903;49.480;11.102;2023-09-07T02:34:05;4.03;;;3.63;;
13660;SDS011;6903;49.480;11.102;2023-09-07T02:36:31;5.30;;;3.70;;
13660;SDS011;6903;49.480;11.102;2023-09-07T02:38:56;5.80;;;3.93;;
13660;SDS011;6903;49.480;11.102;2023-09-07T02:41:21;4.82;;;3.85;;
13660;SDS011;6903;49.480;11.102;2023-09-07T02:43:46;4.53;;;3.90;;
13660;SDS011;6903;49.480;11.102;2023-09-07T02:46:12;4.37;;;3.97;;
13660;SDS011;6903;49.480;11.102;2023-09-07T02:48:37;4.37;;;3.70;;
13660;SDS011;6903;49.480;11.102;2023-09-07T02:51:02;4.50;;;3.90;;
13660;SDS011;6903;49.480;11.102;2023-09-07T02:53:28;4.70;;;3.47;;
13660;SDS011;6903;49.480;11.102;2023-09-07T02:55:54;5.43;;;3.57;;
13660;SDS011;6903;49.480;11.102;2023-09-07T02:58:19;4.90;;;4.00;;
13660;SDS011;6903;49.480;11.102;2023-09-07T03:00:45;4.40;;;4.00;;
13660;SDS011;6903;49.480;11.102;2023-09-07T03:03:12;6.53;;;4.67;;
13660;SDS011;6903;49.480;11.102;2023-09-07T03:05:41;4.67;;;4.03;;
13660;SDS011;6903;49.480;11.102;2023-09-07T03:08:07;4.73;;;4.23;;
13660;SDS011;6903;49.480;11.102;2023-09-07T03:10:33;4.83;;;4.13;;
13660;SDS011;6903;49.480;11.102;2023-09-07T03:13:00;4.87;;;4.37;;
13660;SDS011;6903;49.480;11.102;2023-09-07T03:15:25;4.73;;;3.97;;
13660;SDS011;6903;49.480;11.102;2023-09-07T03:17:51;4.90;;;4.23;;
13660;SDS011;6903;49.480;11.102;2023-09-07T03:20:16;5.00;;;4.00;;
13660;SDS011;6903;49.480;11.102;2023-09-07T03:22:42;5.40;;;4.07;;
13660;SDS011;6903;49.480;11.102;2023-09-07T03:25:08;5.50;;;3.90;;
13660;SDS011;6903;49.480;11.102;2023-09-07T03:27:37;4.90;;;3.90;;
13660;SDS011;6903;49.480;11.102;2023-09-07T03:30:03;5.50;;;4.43;;
13660;SDS011;6903;49.480;11.102;2023-09-07T03:32:30;4.43;;;3.77;;
13660;SDS011;6903;49.480;11.102;2023-09-07T03:34:58;5.93;;;4.47;;
13660;SDS011;6903;49.480;11.102;2023-09-07T03:37:24;5.17;;;4.10;;
13660;SDS011;6903;49.480;11.102;2023-09-07T03:39:49;5.63;;;4.50;;
13660;SDS011;6903;49.480;11.102;2023-09-07T03:42:15;5.90;;;4.37;;
13660;SDS011;6903;49.480;11.102;2023-09-07T03:44:41;4.50;;;4.00;;
13660;SDS011;6903;49.480;11.102;2023-09-07T03:47:06;6.07;;;4.13;;
13660;SDS011;6903;49.480;11.102;2023-09-07T03:49:31;5.80;;;4.30;;
13660;SDS011;6903;49.480;11.102;2023-09-07T03:51:57;5.80;;;4.13;;
13660;SDS011;6903;49.480;11.102;2023-09-07T03:54:22;7.20;;;4.70;;
13660;SDS011;6903;49.480;11.102;2023-09-07T03:56:47;6.40;;;4.67;;
13660;SDS011;6903;49.480;11.102;2023-09-07T03:59:13;5.83;;;4.57;;
13660;SDS011;6903;49.480;11.102;2023-09-07T04:01:38;6.23;;;4.63;;
13660;SDS011;6903;49.480;11.102;2023-09-07T04:04:03;6.53;;;4.77;;
13660;SDS011;6903;49.480;11.102;2023-09-07T04:06:29;6.07;;;4.40;;
13660;SDS011;6903;49.480;11.102;2023-09-07T04:08:54;5.97;;;4.30;;
13660;SDS011;6903;49.480;11.102;2023-09-07T04:11:20;6.83;;;4.43;;
13660;SDS011;6903;49.480;11.102;2023-09-07T04:13:45;6.13;;;4.33;;
13660;SDS011;6903;49.480;11.102;2023-09-07T04:16:11;7.17;;;5.07;;
13660;SDS011;6903;49.480;11.102;2023-09-07T04:18:36;5.70;;;4.70;;
13660;SDS011;6903;49.480;11.102;2023-09-07T04:21:05;7.50;;;5.33;;
13660;SDS011;6903;49.480;11.102;2023-09-07T04:23:31;7.23;;;4.90;;
13660;SDS011;6903;49.480;11.102;2023-09-07T04:26:09;7.93;;;5.33;;
13660;SDS011;6903;49.480;11.102;2023-09-07T04:28:36;6.50;;;4.70;;
13660;SDS011;6903;49.480;11.102;2023-09-07T04:31:02;6.67;;;4.90;;
13660;SDS011;6903;49.480;11.102;2023-09-07T04:33:31;5.97;;;4.90;;
13660;SDS011;6903;49.480;11.102;2023-09-07T04:36:06;6.93;;;5.30;;
13660;SDS011;6903;49.480;11.102;2023-09-07T04:38:32;9.90;;;5.20;;
13660;SDS011;6903;49.480;11.102;2023-09-07T04:41:05;7.17;;;4.83;;
13660;SDS011;6903;49.480;11.102;2023-09-07T04:43:34;7.77;;;5.50;;
13660;SDS011;6903;49.480;11.102;2023-09-07T04:45:59;6.70;;;4.80;;
13660;SDS011;6903;49.480;11.102;2023-09-07T04:48:25;7.43;;;5.47;;
13660;SDS011;6903;49.480;11.102;2023-09-07T04:51:03;5.83;;;5.03;;
13660;SDS011;6903;49.480;11.102;2023-09-07T04:53:34;5.67;;;4.53;;
13660;SDS011;6903;49.480;11.102;2023-09-07T04:56:01;6.33;;;4.50;;
13660;SDS011;6903;49.480;11.102;2023-09-07T04:58:27;7.10;;;5.33;;
13660;SDS011;6903;49.480;11.102;2023-09-07T05:00:52;8.63;;;5.37;;
13660;SDS011;6903;49.480;11.102;2023-09-07T05:03:18;7.90;;;5.50;;
13660;SDS011;6903;49.480;11.102;2023-09-07T05:05:43;10.47;;;5.90;;
13660;SDS011;6903;49.480;11.102;2023-09-07T05:08:09;8.63;;;5.77;;
13660;SDS011;6903;49.480;11.102;2023-09-07T05:10:35;8.37;;;5.90;;
13660;SDS011;6903;49.480;11.102;2023-09-07T05:13:01;8.13;;;5.97;;
13660;SDS011;6903;49.480;11.102;2023-09-07T05:15:26;10.77;;;6.60;;
13660;SDS011;6903;49.480;11.102;2023-09-07T05:17:52;12.63;;;8.00;;
13660;SDS011;6903;49.480;11.102;2023-09-07T05:20:18;16.20;;;9.13;;
13660;SDS011;6903;49.480;11.102;2023-09-07T05:22:43;17.63;;;10.27;;
13660;SDS011;6903;49.480;11.102;2023-09-07T05:25:09;13.80;;;9.93;;
13660;SDS011;6903;49.480;11.102;2023-09-07T05:27:35;9.07;;;6.83;;
13660;SDS011;6903;49.480;11.102;2023-09-07T05:30:00;4.93;;;4.43;;
13660;SDS011;6903;49.480;11.102;2023-09-07T05:32:26;4.22;;;3.55;;
13660;SDS011;6903;49.480;11.102;2023-09-07T05:34:51;5.57;;;3.78;;
13660;SDS011;6903;49.480;11.102;2023-09-07T05:37:17;4.03;;;3.13;;
13660;SDS011;6903;49.480;11.102;2023-09-07T05:39:42;3.70;;;3.35;;
13660;SDS011;6903;49.480;11.102;2023-09-07T05:42:07;3.85;;;3.38;;
13660;SDS011;6903;49.480;11.102;2023-09-07T05:44:33;3.95;;;3.35;;
13660;SDS011;6903;49.480;11.102;2023-09-07T05:46:58;3.97;;;3.20;;
13660;SDS011;6903;49.480;11.102;2023-09-07T05:49:23;4.05;;;3.65;;
13660;SDS011;6903;49.480;11.102;2023-09-07T05:51:49;4.22;;;3.38;;
13660;SDS011;6903;49.480;11.102;2023-09-07T05:54:14;3.42;;;3.13;;
13660;SDS011;6903;49.480;11.102;2023-09-07T05:56:40;4.53;;;3.30;;
13660;SDS011;6903;49.480;11.102;2023-09-07T05:59:05;3.50;;;3.20;;
13660;SDS011;6903;49.480;11.102;2023-09-07T06:01:30;4.15;;;3.10;;
13660;SDS011;6903;49.480;11.102;2023-09-07T06:03:56;3.58;;;2.97;;
13660;SDS011;6903;49.480;11.102;2023-09-07T06:06:23;3.35;;;3.05;;
13660;SDS011;6903;49.480;11.102;2023-09-07T06:08:48;3.65;;;2.72;;
13660;SDS011;6903;49.480;11.102;2023-09-07T06:11:14;5.05;;;3.20;;
13660;SDS011;6903;49.480;11.102;2023-09-07T06:13:39;3.15;;;2.85;;
13660;SDS011;6903;49.480;11.102;2023-09-07T06:16:04;2.67;;;2.38;;
13660;SDS011;6903;49.480;11.102;2023-09-07T06:18:30;3.72;;;3.00;;
13660;SDS011;6903;49.480;11.102;2023-09-07T06:20:55;2.97;;;2.67;;
13660;SDS011;6903;49.480;11.102;2023-09-07T06:23:20;3.58;;;3.00;;
13660;SDS011;6903;49.480;11.102;2023-09-07T06:25:46;2.70;;;2.50;;
13660;SDS011;6903;49.480;11.102;2023-09-07T06:28:11;3.28;;;2.70;;
13660;SDS011;6903;49.480;11.102;2023-09-07T06:30:38;3.17;;;2.88;;
13660;SDS011;6903;49.480;11.102;2023-09-07T06:33:03;3.33;;;2.50;;
13660;SDS011;6903;49.480;11.102;2023-09-07T06:35:29;3.42;;;2.80;;
13660;SDS011;6903;49.480;11.102;2023-09-07T06:37:54;2.63;;;2.42;;
13660;SDS011;6903;49.480;11.102;2023-09-07T06:40:20;3.28;;;2.92;;
13660;SDS011;6903;49.480;11.102;2023-09-07T06:42:46;3.33;;;2.40;;
13660;SDS011;6903;49.480;11.102;2023-09-07T06:45:11;2.78;;;2.50;;
13660;SDS011;6903;49.480;11.102;2023-09-07T06:47:37;2.55;;;2.35;;
13660;SDS011;6903;49.480;11.102;2023-09-07T06:50:03;3.20;;;2.90;;
13660;SDS011;6903;49.480;11.102;2023-09-07T06:52:29;2.65;;;2.45;;
13660;SDS011;6903;49.480;11.102;2023-09-07T06:54:54;3.85;;;2.72;;
13660;SDS011;6903;49.480;11.102;2023-09-07T06:57:20;3.35;;;2.90;;
13660;SDS011;6903;49.480;11.102;2023-09-07T06:59:45;2.60;;;2.40;;
13660;SDS011;6903;49.480;11.102;2023-09-07T07:02:11;3.35;;;2.80;;
13660;SDS011;6903;49.480;11.102;2023-09-07T07:04:36;2.92;;;2.40;;
13660;SDS011;6903;49.480;11.102;2023-09-07T07:07:02;2.90;;;2.60;;
13660;SDS011;6903;49.480;11.102;2023-09-07T07:09:29;3.45;;;2.72;;
13660;SDS011;6903;49.480;11.102;2023-09-07T07:11:55;3.92;;;2.95;;
13660;SDS011;6903;49.480;11.102;2023-09-07T07:14:20;3.28;;;2.78;;
13660;SDS011;6903;49.480;11.102;2023-09-07T07:16:46;2.55;;;2.33;;
13660;SDS011;6903;49.480;11.102;2023-09-07T07:19:11;2.50;;;2.30;;
13660;SDS011;6903;49.480;11.102;2023-09-07T07:21:36;3.60;;;3.08;;
13660;SDS011;6903;49.480;11.102;2023-09-07T07:24:02;3.05;;;2.72;;
13660;SDS011;6903;49.480;11.102;2023-09-07T07:26:29;2.63;;;2.42;;
13660;SDS011;6903;49.480;11.102;2023-09-07T07:28:55;2.92;;;2.65;;
13660;SDS011;6903;49.480;11.102;2023-09-07T07:31:20;2.92;;;2.58;;
13660;SDS011;6903;49.480;11.102;2023-09-07T07:33:46;3.10;;;2.80;;
13660;SDS011;6903;49.480;11.102;2023-09-07T07:36:13;3.15;;;2.58;;
13660;SDS011;6903;49.480;11.102;2023-09-07T07:38:38;3.10;;;2.80;;
13660;SDS011;6903;49.480;11.102;2023-09-07T07:41:04;4.55;;;3.13;;
13660;SDS011;6903;49.480;11.102;2023-09-07T07:43:30;3.20;;;2.90;;
13660;SDS011;6903;49.480;11.102;2023-09-07T07:45:55;3.63;;;2.88;;
13660;SDS011;6903;49.480;11.102;2023-09-07T07:48:20;2.97;;;2.50;;
13660;SDS011;6903;49.480;11.102;2023-09-07T07:50:46;3.85;;;2.92;;
13660;SDS011;6903;49.480;11.102;2023-09-07T07:53:11;2.42;;;2.22;;
13660;SDS011;6903;49.480;11.102;2023-09-07T07:55:37;3.20;;;2.70;;
13660;SDS011;6903;49.480;11.102;2023-09-07T07:58:06;2.78;;;2.50;;
13660;SDS011;6903;49.480;11.102;2023-09-07T08:00:33;3.08;;;2.75;;
13660;SDS011;6903;49.480;11.102;2023-09-07T08:03:02;3.58;;;2.90;;
13660;SDS011;6903;49.480;11.102;2023-09-07T08:05:30;3.17;;;2.88;;
13660;SDS011;6903;49.480;11.102;2023-09-07T08:07:56;3.10;;;2.80;;
13660;SDS011;6903;49.480;11.102;2023-09-07T08:10:22;3.47;;;2.55;;
13660;SDS011;6903;49.480;11.102;2023-09-07T08:12:47;3.15;;;2.70;;
13660;SDS011;6903;49.480;11.102;2023-09-07T08:15:12;2.78;;;2.50;;
13660;SDS011;6903;49.480;11.102;2023-09-07T08:17:39;2.70;;;2.50;;
13660;SDS011;6903;49.480;11.102;2023-09-07T08:20:05;3.20;;;2.90;;
13660;SDS011;6903;49.480;11.102;2023-09-07T08:22:32;3.17;;;2.70;;
13660;SDS011;6903;49.480;11.102;2023-09-07T08:25:00;2.67;;;2.22;;
13660;SDS011;6903;49.480;11.102;2023-09-07T08:27:25;2.60;;;2.40;;
13660;SDS011;6903;49.480;11.102;2023-09-07T08:29:51;3.08;;;2.65;;
13660;SDS011;6903;49.480;11.102;2023-09-07T08:32:17;3.30;;;3.00;;
13660;SDS011;6903;49.480;11.102;2023-09-07T08:34:43;3.10;;;2.80;;
13660;SDS011;6903;49.480;11.102;2023-09-07T08:37:09;3.08;;;2.78;;
13660;SDS011;6903;49.480;11.102;2023-09-07T08:39:34;3.55;;;3.00;;
13660;SDS011;6903;49.480;11.102;2023-09-07T08:42:01;3.03;;;2.70;;
13660;SDS011;6903;49.480;11.102;2023-09-07T08:44:27;2.60;;;2.40;;
13660;SDS011;6903;49.480;11.102;2023-09-07T08:46:54;3.22;;;2.92;;
13660;SDS011;6903;49.480;11.102;2023-09-07T08:49:20;3.05;;;2.83;;
13660;SDS011;6903;49.480;11.102;2023-09-07T08:51:46;3.45;;;2.83;;
13660;SDS011;6903;49.480;11.102;2023-09-07T08:54:12;2.97;;;2.53;;
13660;SDS011;6903;49.480;11.102;2023-09-07T08:56:38;3.03;;;2.38;;
13660;SDS011;6903;49.480;11.102;2023-09-07T08:59:03;3.00;;;2.70;;
13660;SDS011;6903;49.480;11.102;2023-09-07T09:01:29;3.05;;;2.65;;
13660;SDS011;6903;49.480;11.102;2023-09-07T09:03:56;3.15;;;2.75;;
13660;SDS011;6903;49.480;11.102;2023-09-07T09:06:22;3.03;;;2.70;;
13660;SDS011;6903;49.480;11.102;2023-09-07T09:08:49;3.10;;;2.70;;
13660;SDS011;6903;49.480;11.102;2023-09-07T09:11:17;3.40;;;3.10;;
13660;SDS011;6903;49.480;11.102;2023-09-07T09:13:43;3.50;;;2.88;;
13660;SDS011;6903;49.480;11.102;2023-09-07T09:16:09;3.05;;;2.58;;
13660;SDS011;6903;49.480;11.102;2023-09-07T09:18:35;3.78;;;2.40;;
13660;SDS011;6903;49.480;11.102;2023-09-07T09:21:01;2.88;;;2.58;;
13660;SDS011;6903;49.480;11.102;2023-09-07T09:23:31;3.40;;;2.58;;
13660;SDS011;6903;49.480;11.102;2023-09-07T09:25:58;2.92;;;2.60;;
13660;SDS011;6903;49.480;11.102;2023-09-07T09:28:25;2.92;;;2.67;;
13660;SDS011;6903;49.480;11.102;2023-09-07T09:30:51;3.10;;;2.40;;
13660;SDS011;6903;49.480;11.102;2023-09-07T09:33:19;2.92;;;2.53;;
13660;SDS011;6903;49.480;11.102;2023-09-07T09:35:44;2.80;;;2.60;;
13660;SDS011;6903;49.480;11.102;2023-09-07T09:38:12;3.03;;;2.72;;
13660;SDS011;6903;49.480;11.102;2023-09-07T09:40:38;3.10;;;2.80;;
13660;SDS011;6903;49.480;11.102;2023-09-07T09:43:04;2.97;;;2.75;;
13660;SDS011;6903;49.480;11.102;2023-09-07T09:45:30;2.97;;;2.67;;
13660;SDS011;6903;49.480;11.102;2023-09-07T09:47:57;3.28;;;2.78;;
13660;SDS011;6903;49.480;11.102;2023-09-07T09:50:23;2.35;;;2.15;;
13660;SDS011;6903;49.480;11.102;2023-09-07T09:52:49;3.17;;;2.53;;
13660;SDS011;6903;49.480;11.102;2023-09-07T09:55:17;2.90;;;2.60;;
13660;SDS011;6903;49.480;11.102;2023-09-07T09:57:43;2.90;;;2.60;;
13660;SDS011;6903;49.480;11.102;2023-09-07T10:00:08;4.03;;;2.50;;
13660;SDS011;6903;49.480;11.102;2023-09-07T10:02:47;4.13;;;2.58;;
13660;SDS011;6903;49.480;11.102;2023-09-07T10:05:16;2.90;;;2.60;;
13660;SDS011;6903;49.480;11.102;2023-09-07T10:07:44;2.97;;;2.67;;
13660;SDS011;6903;49.480;11.102;2023-09-07T10:10:13;2.63;;;2.42;;
13660;SDS011;6903;49.480;11.102;2023-09-07T10:12:42;2.80;;;2.22;;
13660;SDS011;6903;49.480;11.102;2023-09-07T10:17:50;2.70;;;2.47;;
13660;SDS011;6903;49.480;11.102;2023-09-07T10:20:27;2.80;;;2.60;;
13660;SDS011;6903;49.480;11.102;2023-09-07T10:23:01;2.78;;;2.58;;
13660;SDS011;6903;49.480;11.102;2023-09-07T10:25:29;2.60;;;2.40;;
13660;SDS011;6903;49.480;11.102;2023-09-07T10:27:55;3.30;;;2.60;;
13660;SDS011;6903;49.480;11.102;2023-09-07T10:30:21;3.58;;;2.28;;
13660;SDS011;6903;49.480;11.102;2023-09-07T10:32:49;2.75;;;2.50;;
13660;SDS011;6903;49.480;11.102;2023-09-07T10:35:15;2.78;;;2.40;;
13660;SDS011;6903;49.480;11.102;2023-09-07T10:37:43;2.60;;;2.20;;
13660;SDS011;6903;49.480;11.102;2023-09-07T10:40:10;2.88;;;2.58;;
13660;SDS011;6903;49.480;11.102;2023-09-07T10:42:36;3.03;;;2.42;;
13660;SDS011;6903;49.480;11.102;2023-09-07T10:45:09;3.47;;;2.78;;
13660;SDS011;6903;49.480;11.102;2023-09-07T10:47:40;2.70;;;2.25;;
13660;SDS011;6903;49.480;11.102;2023-09-07T10:50:10;2.30;;;2.10;;
13660;SDS011;6903;49.480;11.102;2023-09-07T10:52:37;3.00;;;2.50;;
13660;SDS011;6903;49.480;11.102;2023-09-07T10:55:03;4.15;;;2.83;;
13660;SDS011;6903;49.480;11.102;2023-09-07T10:57:28;2.50;;;2.25;;
13660;SDS011;6903;49.480;11.102;2023-09-07T10:59:54;4.15;;;2.35;;
13660;SDS011;6903;49.480;11.102;2023-09-07T11:02:20;3.03;;;2.72;;
13660;SDS011;6903;49.480;11.102;2023-09-07T11:04:45;2.22;;;2.03;;
13660;SDS011;6903;49.480;11.102;2023-09-07T11:07:11;2.85;;;2.47;;
13660;SDS011;6903;49.480;11.102;2023-09-07T11:09:43;3.00;;;2.40;;
13660;SDS011;6903;49.480;11.102;2023-09-07T11:12:11;2.95;;;2.40;;
13660;SDS011;6903;49.480;11.102;2023-09-07T11:14:38;2.85;;;2.58;;
13660;SDS011;6903;49.480;11.102;2023-09-07T11:17:04;2.60;;;2.40;;
13660;SDS011;6903;49.480;11.102;2023-09-07T11:19:32;2.60;;;2.40;;
13660;SDS011;6903;49.480;11.102;2023-09-07T11:21:58;5.18;;;2.83;;
13660;SDS011;6903;49.480;11.102;2023-09-07T11:24:24;2.88;;;2.40;;
13660;SDS011;6903;49.480;11.102;2023-09-07T11:26:51;4.00;;;2.30;;
13660;SDS011;6903;49.480;11.102;2023-09-07T11:29:16;2.92;;;2.55;;
13660;SDS011;6903;49.480;11.102;2023-09-07T11:31:46;3.03;;;2.40;;
13660;SDS011;6903;49.480;11.102;2023-09-07T11:34:12;3.53;;;2.65;;
13660;SDS011;6903;49.480;11.102;2023-09-07T11:36:39;3.85;;;2.45;;
13660;SDS011;6903;49.480;11.102;2023-09-07T11:39:08;2.42;;;2.22;;
13660;SDS011;6903;49.480;11.102;2023-09-07T11:41:40;2.92;;;2.40;;
13660;SDS011;6903;49.480;11.102;2023-09-07T11:44:07;3.08;;;2.53;;
13660;SDS011;6903;49.480;11.102;2023-09-07T11:46:32;2.42;;;2.22;;
13660;SDS011;6903;49.480;11.102;2023-09-07T11:48:58;2.50;;;2.30;;
13660;SDS011;6903;49.480;11.102;2023-09-07T11:51:23;4.47;;;2.50;;
13660;SDS011;6903;49.480;11.102;2023-09-07T11:53:49;2.83;;;2.50;;
13660;SDS011;6903;49.480;11.102;2023-09-07T11:56:14;2.45;;;2.25;;
13660;SDS011;6903;49.480;11.102;2023-09-07T11:58:40;3.00;;;2.30;;
13660;SDS011;6903;49.480;11.102;2023-09-07T12:01:07;3.05;;;2.47;;
13660;SDS011;6903;49.480;11.102;2023-09-07T12:03:33;2.92;;;2.40;;
13660;SDS011;6903;49.480;11.102;2023-09-07T12:05:59;2.53;;;2.33;;
13660;SDS011;6903;49.480;11.102;2023-09-07T12:08:24;3.33;;;2.30;;
13660;SDS011;6903;49.480;11.102;2023-09-07T12:10:50;3.60;;;2.60;;
13660;SDS011;6903;49.480;11.102;2023-09-07T12:13:15;3.10;;;2.40;;
13660;SDS011;6903;49.480;11.102;2023-09-07T12:15:40;2.60;;;2.40;;
13660;SDS011;6903;49.480;11.102;2023-09-07T12:18:06;2.80;;;2.17;;
13660;SDS011;6903;49.480;11.102;2023-09-07T12:20:32;3.55;;;2.88;;
13660;SDS011;6903;49.480;11.102;2023-09-07T12:22:59;3.47;;;2.80;;
13660;SDS011;6903;49.480;11.102;2023-09-07T12:25:25;3.03;;;2.60;;
13660;SDS011;6903;49.480;11.102;2023-09-07T12:27:50;2.50;;;2.30;;
13660;SDS011;6903;49.480;11.102;2023-09-07T12:30:17;2.55;;;2.35;;
13660;SDS011;6903;49.480;11.102;2023-09-07T12:32:45;2.58;;;2.38;;
13660;SDS011;6903;49.480;11.102;2023-09-07T12:35:10;2.55;;;2.35;;
13660;SDS011;6903;49.480;11.102;2023-09-07T12:37:35;2.80;;;2.50;;
13660;SDS011;6903;49.480;11.102;2023-09-07T12:40:01;2.40;;;2.20;;
13660;SDS011;6903;49.480;11.102;2023-09-07T12:42:32;2.70;;;2.50;;
13660;SDS011;6903;49.480;11.102;2023-09-07T12:44:57;3.25;;;2.45;;
13660;SDS011;6903;49.480;11.102;2023-09-07T12:47:23;3.00;;;2.70;;
13660;SDS011;6903;49.480;11.102;2023-09-07T12:49:48;3.47;;;2.63;;
13660;SDS011;6903;49.480;11.102;2023-09-07T12:52:13;2.42;;;2.22;;
13660;SDS011;6903;49.480;11.102;2023-09-07T12:54:39;3.00;;;2.55;;
13660;SDS011;6903;49.480;11.102;2023-09-07T12:57:05;2.63;;;2.30;;
13660;SDS011;6903;49.480;11.102;2023-09-07T12:59:30;2.85;;;2.60;;
13660;SDS011;6903;49.480;11.102;2023-09-07T13:01:55;2.35;;;2.15;;
13660;SDS011;6903;49.480;11.102;2023-09-07T13:04:21;2.28;;;2.08;;
13660;SDS011;6903;49.480;11.102;2023-09-07T13:06:47;2.97;;;2.67;;
13660;SDS011;6903;49.480;11.102;2023-09-07T13:09:12;2.65;;;2.45;;
13660;SDS011;6903;49.480;11.102;2023-09-07T13:11:38;3.10;;;2.67;;
13660;SDS011;6903;49.480;11.102;2023-09-07T13:14:04;3.10;;;2.17;;
13660;SDS011;6903;49.480;11.102;2023-09-07T13:16:29;3.20;;;2.75;;
13660;SDS011;6903;49.480;11.102;2023-09-07T13:18:57;2.65;;;2.45;;
13660;SDS011;6903;49.480;11.102;2023-09-07T13:21:22;2.78;;;2.47;;
13660;SDS011;6903;49.480;11.102;2023-09-07T13:23:48;3.47;;;2.83;;
13660;SDS011;6903;49.480;11.102;2023-09-07T13:26:13;2.35;;;2.15;;
13660;SDS011;6903;49.480;11.102;2023-09-07T13:28:38;2.72;;;2.50;;
13660;SDS011;6903;49.480;11.102;2023-09-07T13:31:04;3.20;;;2.55;;
13660;SDS011;6903;49.480;11.102;2023-09-07T13:33:29;2.63;;;2.40;;
13660;SDS011;6903;49.480;11.102;2023-09-07T13:35:55;2.67;;;2.45;;
13660;SDS011;6903;49.480;11.102;2023-09-07T13:38:20;3.60;;;2.50;;
13660;SDS011;6903;49.480;11.102;2023-09-07T13:40:45;3.25;;;2.65;;
13660;SDS011;6903;49.480;11.102;2023-09-07T13:43:10;2.53;;;2.17;;
13660;SDS011;6903;49.480;11.102;2023-09-07T13:45:36;2.67;;;2.35;;
13660;SDS011;6903;49.480;11.102;2023-09-07T13:48:01;3.10;;;2.13;;
13660;SDS011;6903;49.480;11.102;2023-09-07T13:50:27;2.50;;;2.20;;
13660;SDS011;6903;49.480;11.102;2023-09-07T13:52:54;2.67;;;2.47;;
13660;SDS011;6903;49.480;11.102;2023-09-07T13:55:19;2.33;;;2.13;;
13660;SDS011;6903;49.480;11.102;2023-09-07T13:57:45;2.60;;;2.40;;
13660;SDS011;6903;49.480;11.102;2023-09-07T14:00:10;2.47;;;2.28;;
13660;SDS011;6903;49.480;11.102;2023-09-07T14:02:36;2.67;;;2.25;;
13660;SDS011;6903;49.480;11.102;2023-09-07T14:05:01;2.35;;;2.15;;
13660;SDS011;6903;49.480;11.102;2023-09-07T14:07:27;3.25;;;2.40;;
13660;SDS011;6903;49.480;11.102;2023-09-07T14:09:54;2.45;;;2.22;;
13660;SDS011;6903;49.480;11.102;2023-09-07T14:12:19;2.95;;;2.40;;
13660;SDS011;6903;49.480;11.102;2023-09-07T14:14:45;3.05;;;2.35;;
13660;SDS011;6903;49.480;11.102;2023-09-07T14:17:10;2.58;;;2.25;;
13660;SDS011;6903;49.480;11.102;2023-09-07T14:19:35;3.08;;;2.38;;
13660;SDS011;6903;49.480;11.102;2023-09-07T14:22:00;2.67;;;2.40;;
13660;SDS011;6903;49.480;11.102;2023-09-07T14:24:26;2.63;;;2.20;;
13660;SDS011;6903;49.480;11.102;2023-09-07T14:26:51;2.75;;;2.45;;
13660;SDS011;6903;49.480;11.102;2023-09-07T14:29:17;2.78;;;2.33;;
13660;SDS011;6903;49.480;11.102;2023-09-07T14:31:42;3.08;;;2.60;;
13660;SDS011;6903;49.480;11.102;2023-09-07T14:34:08;2.65;;;2.45;;
13660;SDS011;6903;49.480;11.102;2023-09-07T14:36:35;2.80;;;2.40;;
13660;SDS011;6903;49.480;11.102;2023-09-07T14:39:01;2.75;;;2.50;;
13660;SDS011;6903;49.480;11.102;2023-09-07T14:41:27;2.72;;;2.53;;
13660;SDS011;6903;49.480;11.102;2023-09-07T14:43:55;2.70;;;2.40;;